Etusivu
METAR-TAF:

METAR-TAF

Lentoasemat :

Barahona, Dominikaaninen tasavalta

Leveyspiiri: 18-12N, Pituuspiiri: 071-06W, korkeus merenpinnasta: 3 m

Tämänhetkinen sää

Tämä raportti tehtiin 49 minuuttia sitten, kello 19.00 UTC
Tuuli 16 kn kaakosta
Lämpötila 28°C
Kosteus 66%
Ilmanpaine 1017 hPa
Näkyvyys 10 km tai enemmän
Muutamia pilviä 2600 ft:n korkeudessa
Hajanaisia pilviä 30000 ft:n korkeudessa

METAR: MDBH 241900Z 13016KT 9999 FEW026 SCT300 28/21 Q1017

Aika: 15:49 (19:49 UTC)

Sääennuste

Tämä raportti tehtiin 3 tuntia ja 49 minuuttia sitten, kello 16.00 UTC
Ennuste voimassa 24. päivästä klo 18 UTC - 25. päivään klo 18 UTC
Tuuli 6 kn kaakosta
Näkyvyys 10 km tai enemmän
Muutamia pilviä 2200 ft:n korkeudessa

TAF: MDBH 241600Z 2418/2518 13006KT 9999 FEW022

Säähavainnot ja -ennusteet yli 4000 lentoasemalta (METAR- ja TAF-raportit).

Käytössä olevat sääasemat on merkitty karttaan keltaisilla ja punaisilla pisteillä.

Aseta hiiri pisteen päälle nähdäksesi sääaseman nimen.

Klikkaa sitten nähdäksesi säähavainnot ja -ennusteet.

Kartan vaihtaminen: klikkaa mustalla rastilla varustettuja vihreitä pisteitä, niin voit zoomata sisään; viivalla varustettua vihreää pistettä, niin voit zoomata ulos tai vihreitä nuolia, niin pääset viereisille kartoille.


METAR-TAF: